MSC Fabiola — A8VL5 — position and weather

sailwx.info

Track history (hours):
 
Tides and Currents Weather Stations Pressure Air Temp Water Temp Dewpoint Dewpoint Depression Visibility Wind Speed Wind Dir Waves Ship Positions

MSC Fabiola

Last reported at 2015-Oct-29 02:33 UTC. Time now 2016-Dec-08 02:10 UTC.
Position N 38°57' E 117°56'.
Warning: this ship's position is years out of date!

Length 366 m; draft 7.8 m.

Type: Ship. MMSI: 636092019.

Date/timePositionNaut miles runAvg speedWind from/ knotsBaromVisibWave heightAir tempDewpointWater temp
2015-Oct-29 02:33N 38°57' E 117°56'8 7.7
2015-Oct-29 01:33N 38°60' E 117°47'0 0.0
2015-Oct-28 23:28N 38°60' E 117°47'0 0.0
2015-Oct-28 22:28N 38°60' E 117°47'0 0.0
2015-Oct-28 20:28N 38°60' E 117°47'0 0.0
2015-Oct-28 19:28N 38°60' E 117°47'0 0.0
2015-Oct-28 18:28N 38°60' E 117°47'0 0.0
2015-Oct-28 17:28N 38°60' E 117°47'0 0.0
2015-Oct-28 16:28N 38°60' E 117°47'0 0.0
2015-Oct-28 14:22N 38°60' E 117°47'0 0.0
2015-Oct-28 12:22N 38°60' E 117°47'0 0.0
2015-Oct-28 11:04N 38°60' E 117°47'0 0.0
2015-Oct-28 10:28N 38°60' E 117°47'0 0.0
2015-Oct-28 09:10N 38°60' E 117°47'0 0.0
2015-Oct-28 08:28N 38°60' E 117°47'0 0.0
2015-Oct-28 07:16N 38°60' E 117°47'0 0.0
2015-Oct-28 06:28N 38°60' E 117°47'0 0.0
2015-Oct-28 04:28N 38°60' E 117°47'0 0.0
2015-Oct-28 03:08N 38°60' E 117°47'1 2.1
2015-Oct-28 02:33N 38°59' E 117°48'1111.4
2015-Oct-28 01:33N 38°56' E 118°02'18212.6
2015-Oct-27 11:06N 38°37' E 121°54'1414.9
2015-Oct-27 10:09N 38°51' E 121°55'  
2015-Oct-24 10:16N 30°29' E 123°01'1010.5
2015-Oct-24 09:19N 30°29' E 122°49'2810.0
2015-Oct-24 06:30N 30°33' E 122°17'12 1.3
2015-Oct-23 21:31N 30°37' E 122°04'0 0.0
2015-Oct-23 20:25N 30°37' E 122°04'0 0.0
2015-Oct-23 17:10N 30°37' E 122°04'0 0.0
2015-Oct-23 16:19N 30°37' E 122°04'0 0.0
2015-Oct-23 13:31N 30°37' E 122°04'10 9.5
2015-Oct-23 12:30N 30°34' E 122°15'4 3.9
2015-Oct-23 11:30N 30°33' E 122°19'3314.7
2015-Oct-23 09:15N 30°29' E 122°57'46214.8
2015-Oct-22 02:06N 23°53' E 118°31'  
Track history (hours):
 
Tides and Currents Weather Stations Pressure Air Temp Water Temp Dewpoint Dewpoint Depression Visibility Wind Speed Wind Dir Waves Ship Positions

MSC Fabiola

Last reported at 2015-Oct-29 02:33 UTC. Time now 2016-Dec-08 02:10 UTC.
Position N 38°57' E 117°56'.
Warning: this ship's position is years out of date!

Length 366 m; draft 7.8 m.

Type: Ship. MMSI: 636092019.

Date/timePositionNaut miles runAvg speedWind from/ knotsBaromVisibWave heightAir tempDewpointWater temp
2015-Oct-29 02:33N 38°57' E 117°56'8 7.7
2015-Oct-29 01:33N 38°60' E 117°47'0 0.0
2015-Oct-28 23:28N 38°60' E 117°47'0 0.0
2015-Oct-28 22:28N 38°60' E 117°47'0 0.0
2015-Oct-28 20:28N 38°60' E 117°47'0 0.0
2015-Oct-28 19:28N 38°60' E 117°47'0 0.0
2015-Oct-28 18:28N 38°60' E 117°47'0 0.0
2015-Oct-28 17:28N 38°60' E 117°47'0 0.0
2015-Oct-28 16:28N 38°60' E 117°47'0 0.0
2015-Oct-28 14:22N 38°60' E 117°47'0 0.0
2015-Oct-28 12:22N 38°60' E 117°47'0 0.0
2015-Oct-28 11:04N 38°60' E 117°47'0 0.0
2015-Oct-28 10:28N 38°60' E 117°47'0 0.0
2015-Oct-28 09:10N 38°60' E 117°47'0 0.0
2015-Oct-28 08:28N 38°60' E 117°47'0 0.0
2015-Oct-28 07:16N 38°60' E 117°47'0 0.0
2015-Oct-28 06:28N 38°60' E 117°47'0 0.0
2015-Oct-28 04:28N 38°60' E 117°47'0 0.0
2015-Oct-28 03:08N 38°60' E 117°47'1 2.1
2015-Oct-28 02:33N 38°59' E 117°48'1111.4
2015-Oct-28 01:33N 38°56' E 118°02'18212.6
2015-Oct-27 11:06N 38°37' E 121°54'1414.9
2015-Oct-27 10:09N 38°51' E 121°55'  
2015-Oct-24 10:16N 30°29' E 123°01'1010.5
2015-Oct-24 09:19N 30°29' E 122°49'2810.0
2015-Oct-24 06:30N 30°33' E 122°17'12 1.3
2015-Oct-23 21:31N 30°37' E 122°04'0 0.0
2015-Oct-23 20:25N 30°37' E 122°04'0 0.0
2015-Oct-23 17:10N 30°37' E 122°04'0 0.0
2015-Oct-23 16:19N 30°37' E 122°04'0 0.0
2015-Oct-23 13:31N 30°37' E 122°04'10 9.5
2015-Oct-23 12:30N 30°34' E 122°15'4 3.9
2015-Oct-23 11:30N 30°33' E 122°19'3314.7
2015-Oct-23 09:15N 30°29' E 122°57'46214.8
2015-Oct-22 02:06N 23°53' E 118°31'  

Dump ship's entire track history